createdAt,value
2019-01-08T00:00:42.323Z,100927.98
2019-01-08T00:03:11.091Z,100926.72
2019-01-08T00:05:40.230Z,100911.77
2019-01-08T00:08:09.024Z,100916.66
2019-01-08T00:10:38.043Z,100911.18
2019-01-08T00:13:06.876Z,100895.53
2019-01-08T00:15:35.697Z,100898.72
2019-01-08T00:18:04.511Z,100893.70
2019-01-08T00:20:33.585Z,100880.00
2019-01-08T00:23:02.365Z,100879.70
2019-01-08T00:25:31.153Z,100870.87
2019-01-08T00:27:59.935Z,100870.94
2019-01-08T00:30:29.067Z,100846.73
2019-01-08T00:32:58.122Z,100858.11
2019-01-08T00:35:27.180Z,100857.02
2019-01-08T00:37:56.313Z,100854.86
2019-01-08T00:40:25.128Z,100851.67
2019-01-08T00:42:53.917Z,100838.78
2019-01-08T00:45:22.954Z,100829.02
2019-01-08T00:47:51.743Z,100827.49
2019-01-08T00:50:20.590Z,100822.61
2019-01-08T00:52:49.794Z,100809.69
2019-01-08T00:55:18.560Z,100819.19
2019-01-08T00:57:47.349Z,100812.09
2019-01-08T01:00:17.092Z,100802.33
2019-01-08T01:02:45.898Z,100788.56
2019-01-08T01:05:14.714Z,100788.56
2019-01-08T01:07:43.506Z,100795.98
2019-01-08T01:10:12.396Z,100786.31
2019-01-08T01:12:43.410Z,100777.11
2019-01-08T01:15:12.379Z,100766.58
2019-01-08T01:17:41.505Z,100762.64
2019-01-08T01:20:10.331Z,100753.05
2019-01-08T01:22:39.111Z,100738.20
2019-01-08T01:25:08.065Z,100741.08
2019-01-08T01:27:36.857Z,100731.08
2019-01-08T01:30:06.080Z,100729.23
2019-01-08T01:32:34.945Z,100714.16
2019-01-08T01:35:03.811Z,100710.21
2019-01-08T01:37:32.850Z,100711.33
2019-01-08T01:40:01.990Z,100707.29
2019-01-08T01:42:30.833Z,100692.27
2019-01-08T01:44:59.779Z,100692.36
2019-01-08T01:47:28.683Z,100676.29
2019-01-08T01:49:57.534Z,100670.70
2019-01-08T01:52:26.454Z,100675.41
2019-01-08T01:54:55.824Z,100661.88
2019-01-08T01:57:24.649Z,100655.02
2019-01-08T01:59:53.732Z,100657.18
2019-01-08T02:02:22.656Z,100654.17
2019-01-08T02:04:51.520Z,100645.14
2019-01-08T02:07:20.315Z,100645.14
2019-01-08T02:09:49.367Z,100623.41
2019-01-08T02:12:18.240Z,100615.79
2019-01-08T02:14:47.384Z,100616.16
2019-01-08T02:17:16.184Z,100606.78
2019-01-08T02:19:45.578Z,100599.13
2019-01-08T02:22:14.637Z,100597.34
2019-01-08T02:24:43.775Z,100578.94
2019-01-08T02:27:12.605Z,100577.69
2019-01-08T02:29:41.536Z,100576.55
2019-01-08T02:32:10.361Z,100559.08
2019-01-08T02:34:39.150Z,100559.84
2019-01-08T02:37:08.227Z,100548.56
2019-01-08T02:39:37.304Z,100543.02
2019-01-08T02:42:06.087Z,100531.98
2019-01-08T02:44:34.970Z,100530.44
2019-01-08T02:47:04.150Z,100529.69
2019-01-08T02:49:35.029Z,100539.30
2019-01-08T02:52:04.083Z,100531.22
2019-01-08T02:54:33.186Z,100523.38
2019-01-08T02:57:02.247Z,100527.26
2019-01-08T02:59:31.565Z,100511.06
2019-01-08T03:02:00.620Z,100515.81
2019-01-08T03:04:29.443Z,100499.18
2019-01-08T03:06:58.497Z,100486.86
2019-01-08T03:09:28.803Z,100479.71
2019-01-08T03:11:57.902Z,100475.42
2019-01-08T03:14:27.008Z,100468.16
2019-01-08T03:16:55.887Z,100454.97
2019-01-08T03:19:24.939Z,100443.86
2019-01-08T03:21:53.994Z,100436.80
2019-01-08T03:24:22.817Z,100433.91
2019-01-08T03:26:51.612Z,100427.72
2019-01-08T03:29:22.680Z,100422.73
2019-01-08T03:31:52.074Z,100411.27
2019-01-08T03:34:20.847Z,100386.89
2019-01-08T03:36:49.643Z,100380.89
2019-01-08T03:39:18.470Z,100374.12
2019-01-08T03:41:47.580Z,100364.38
2019-01-08T03:44:16.411Z,100365.98
2019-01-08T03:46:45.357Z,100364.00
2019-01-08T03:49:14.135Z,100358.23
2019-01-08T03:51:42.942Z,100349.37
2019-01-08T03:54:12.090Z,100345.66
2019-01-08T03:56:40.941Z,100331.69
2019-01-08T03:59:10.034Z,100334.75
2019-01-08T04:01:39.461Z,100320.48
2019-01-08T04:04:08.261Z,100318.62
2019-01-08T04:06:37.406Z,100309.01
2019-01-08T04:09:07.195Z,100294.37
2019-01-08T04:11:36.051Z,100283.53
2019-01-08T04:14:05.162Z,100265.25
2019-01-08T04:16:33.935Z,100263.63
2019-01-08T04:19:02.785Z,100254.62
2019-01-08T04:21:31.595Z,100272.48
2019-01-08T04:24:00.636Z,100237.99
2019-01-08T04:26:30.792Z,100238.53
2019-01-08T04:28:59.673Z,100229.05
2019-01-08T04:31:28.476Z,100243.02
2019-01-08T04:33:57.284Z,100225.61
2019-01-08T04:36:26.458Z,100213.39
2019-01-08T04:38:55.276Z,100212.73
2019-01-08T04:41:24.072Z,100211.27
2019-01-08T04:43:53.032Z,100204.73
2019-01-08T04:46:21.861Z,100193.14
2019-01-08T04:48:50.658Z,100181.70
2019-01-08T04:51:19.411Z,100179.44
2019-01-08T04:53:48.206Z,100172.48
2019-01-08T04:56:17.077Z,100163.13
2019-01-08T04:58:45.856Z,100154.66
2019-01-08T05:01:15.084Z,100151.84
2019-01-08T05:03:44.120Z,100149.98
2019-01-08T05:06:13.240Z,100145.83
2019-01-08T05:08:42.412Z,100117.91
2019-01-08T05:11:11.194Z,100132.86
2019-01-08T05:13:40.067Z,100123.80
2019-01-08T05:16:08.855Z,100109.45
2019-01-08T05:18:37.629Z,100111.67
2019-01-08T05:21:06.713Z,100100.33
2019-01-08T05:23:36.036Z,100087.89
2019-01-08T05:26:04.905Z,100078.48
2019-01-08T05:28:33.739Z,100066.67
2019-01-08T05:31:03.144Z,100064.78
2019-01-08T05:33:31.977Z,100065.94
2019-01-08T05:36:00.804Z,100065.58
2019-01-08T05:38:34.369Z,100058.08
2019-01-08T05:41:03.143Z,100053.71
2019-01-08T05:43:32.000Z,100055.23
2019-01-08T05:46:00.894Z,100051.23
2019-01-08T05:48:29.679Z,100044.01
2019-01-08T05:50:58.708Z,100042.80
2019-01-08T05:53:27.779Z,100035.77
2019-01-08T05:55:56.633Z,100015.70
2019-01-08T05:58:25.406Z,100021.89
2019-01-08T06:00:54.190Z,100012.40
2019-01-08T06:03:23.021Z,100011.77
2019-01-08T06:05:51.945Z,100001.64
2019-01-08T06:08:20.997Z,99999.39
2019-01-08T06:10:50.065Z,99979.70
2019-01-08T06:13:19.105Z,99987.94
2019-01-08T06:15:47.953Z,99986.37
2019-01-08T06:18:16.967Z,99957.02
2019-01-08T06:20:45.843Z,99967.15
2019-01-08T06:23:14.728Z,99971.25
2019-01-08T06:25:43.501Z,99958.70
2019-01-08T06:28:12.537Z,99958.23
2019-01-08T06:30:41.322Z,99954.77
2019-01-08T06:33:10.440Z,99953.63
2019-01-08T06:35:39.220Z,99942.75
2019-01-08T06:38:08.006Z,99951.09
2019-01-08T06:40:37.051Z,99954.94
2019-01-08T06:43:05.826Z,99936.39
2019-01-08T06:45:38.142Z,99940.05
2019-01-08T06:48:06.940Z,99950.25
2019-01-08T06:50:35.710Z,99935.55
2019-01-08T06:53:04.737Z,99929.99
2019-01-08T06:55:36.304Z,99925.88
2019-01-08T06:58:05.091Z,99920.06
2019-01-08T07:00:33.886Z,99906.93
2019-01-08T07:03:02.718Z,99923.26
2019-01-08T07:05:31.543Z,99891.92
2019-01-08T07:08:00.309Z,99892.23
2019-01-08T07:10:29.090Z,99898.05
2019-01-08T07:12:58.507Z,99912.19
2019-01-08T07:15:38.048Z,99885.20
2019-01-08T07:18:06.750Z,99873.58
2019-01-08T07:20:36.296Z,99871.33
2019-01-08T07:23:05.516Z,99869.65
2019-01-08T07:25:41.928Z,99862.14
2019-01-08T07:28:04.809Z,99865.71
2019-01-08T07:30:41.231Z,99852.55
2019-01-08T07:33:04.124Z,99852.64
2019-01-08T07:35:33.302Z,99848.23
2019-01-08T07:38:02.276Z,99858.37
2019-01-08T07:40:31.057Z,99849.01
2019-01-08T07:42:59.803Z,99852.84
2019-01-08T07:45:28.667Z,99849.75
2019-01-08T07:47:57.469Z,99839.77
2019-01-08T07:50:26.262Z,99847.21
2019-01-08T07:52:55.029Z,99843.16
2019-01-08T07:55:23.846Z,99844.75
2019-01-08T07:57:52.932Z,99853.66
2019-01-08T08:00:21.786Z,99860.59
2019-01-08T08:02:50.620Z,99859.75
2019-01-08T08:05:19.687Z,99840.89
2019-01-08T08:07:48.478Z,99852.88
2019-01-08T08:10:17.242Z,99850.44
2019-01-08T08:12:46.282Z,99854.55
2019-01-08T08:15:15.422Z,99853.53
2019-01-08T08:17:44.310Z,99866.93
2019-01-08T08:20:13.616Z,99860.58
2019-01-08T08:22:42.687Z,99862.63
2019-01-08T08:25:11.770Z,99866.74
2019-01-08T08:27:40.549Z,99874.25
2019-01-08T08:30:09.930Z,99869.84
2019-01-08T08:32:38.717Z,99872.39
2019-01-08T08:35:08.779Z,99876.52
2019-01-08T08:37:37.717Z,99882.97
2019-01-08T08:40:07.283Z,99881.39
2019-01-08T08:42:36.356Z,99878.50
2019-01-08T08:45:05.361Z,99881.86
2019-01-08T08:47:35.826Z,99885.33
2019-01-08T08:50:05.219Z,99870.91
2019-01-08T08:52:33.988Z,99886.08
2019-01-08T08:55:03.053Z,99882.25
2019-01-08T08:57:32.331Z,99887.80
2019-01-08T09:00:01.092Z,99882.61
2019-01-08T09:02:29.881Z,99891.33
2019-01-08T09:04:58.945Z,99901.94
2019-01-08T09:07:27.971Z,99894.16
2019-01-08T09:09:56.782Z,99895.84
2019-01-08T09:12:25.579Z,99891.91
2019-01-08T09:14:54.335Z,99903.36
2019-01-08T09:17:23.141Z,99904.09
2019-01-08T09:19:51.897Z,99907.03
2019-01-08T09:22:20.733Z,99913.70
2019-01-08T09:24:49.888Z,99930.66
2019-01-08T09:27:18.648Z,99923.63
2019-01-08T09:29:47.417Z,99922.11
2019-01-08T09:32:16.614Z,99935.06
2019-01-08T09:34:45.377Z,99935.70
2019-01-08T09:37:14.186Z,99943.58
2019-01-08T09:39:43.425Z,99943.85
2019-01-08T09:42:12.273Z,99933.64
2019-01-08T09:44:41.042Z,99940.58
2019-01-08T09:47:09.800Z,99935.22
2019-01-08T09:49:38.625Z,99930.17
2019-01-08T09:52:07.396Z,99940.48
2019-01-08T09:54:36.299Z,99938.80
2019-01-08T09:57:05.424Z,99943.58
2019-01-08T09:59:35.582Z,99935.22
2019-01-08T10:02:05.075Z,99967.38
2019-01-08T10:04:33.875Z,99951.55
2019-01-08T10:07:02.693Z,99964.48
2019-01-08T10:09:31.473Z,99961.85
2019-01-08T10:12:00.254Z,99962.96
2019-01-08T10:14:29.021Z,99960.06
2019-01-08T10:16:57.928Z,99966.16
2019-01-08T10:19:26.911Z,99966.64
2019-01-08T10:21:55.729Z,99980.34
2019-01-08T10:24:24.528Z,99992.64
2019-01-08T10:26:53.327Z,99982.13
2019-01-08T10:29:22.375Z,99987.19
2019-01-08T10:31:51.851Z,99996.68
2019-01-08T10:34:20.704Z,100002.77
2019-01-08T10:36:49.461Z,100000.16
2019-01-08T10:39:18.253Z,99997.89
2019-01-08T10:41:47.180Z,99992.84
2019-01-08T10:44:16.060Z,100002.87
2019-01-08T10:46:45.098Z,99991.53
2019-01-08T10:49:13.998Z,99998.94
2019-01-08T10:51:42.795Z,99994.33
2019-01-08T10:54:11.614Z,99991.70
2019-01-08T10:56:40.437Z,99987.86
2019-01-08T10:59:09.208Z,99995.06
2019-01-08T11:01:40.748Z,100000.32
2019-01-08T11:04:09.855Z,100010.66
2019-01-08T11:06:38.709Z,99999.78
2019-01-08T11:09:08.064Z,99993.58
2019-01-08T11:11:37.250Z,100010.76
2019-01-08T11:14:06.554Z,100010.83
2019-01-08T11:16:35.400Z,100005.77
2019-01-08T11:19:06.845Z,100006.98
2019-01-08T11:21:35.929Z,100021.53
2019-01-08T11:24:05.402Z,100018.80
2019-01-08T11:26:34.434Z,100003.52
2019-01-08T11:29:03.547Z,100007.55
2019-01-08T11:31:32.473Z,100013.08
2019-01-08T11:34:01.236Z,100008.03
2019-01-08T11:36:30.297Z,100010.09
2019-01-08T11:38:59.114Z,100017.77
2019-01-08T11:41:27.948Z,100009.98
2019-01-08T11:43:56.999Z,100010.09
2019-01-08T11:46:26.099Z,100009.98
2019-01-08T11:48:54.908Z,100017.02
2019-01-08T11:51:23.709Z,100015.34
2019-01-08T11:53:52.737Z,100015.34
2019-01-08T11:56:21.793Z,100015.14
2019-01-08T11:58:50.593Z,100011.77
2019-01-08T12:01:19.919Z,100019.92
2019-01-08T12:03:49.253Z,100015.34
2019-01-08T12:06:18.103Z,100019.28
2019-01-08T12:08:47.173Z,100007.83
2019-01-08T12:11:15.969Z,100024.06
2019-01-08T12:13:44.761Z,100005.37
2019-01-08T12:16:13.556Z,100011.94
2019-01-08T12:18:42.355Z,100013.45
2019-01-08T12:21:11.767Z,100014.87
2019-01-08T12:23:40.783Z,100015.34
2019-01-08T12:26:09.961Z,100013.08
2019-01-08T12:28:38.728Z,100011.67
2019-01-08T12:31:07.479Z,100010.36
2019-01-08T12:33:36.271Z,100015.51
2019-01-08T12:36:05.074Z,100017.59
2019-01-08T12:38:34.378Z,100008.03
2019-01-08T12:41:03.659Z,100002.84
2019-01-08T12:43:32.551Z,100005.41
2019-01-08T12:46:01.644Z,100010.45
2019-01-08T12:48:30.474Z,100008.94
2019-01-08T12:50:59.313Z,99997.69
2019-01-08T12:53:28.431Z,100002.84
2019-01-08T12:55:57.826Z,100002.20
2019-01-08T12:58:26.923Z,100000.52
2019-01-08T13:00:55.700Z,100006.62
2019-01-08T13:03:24.505Z,99997.99
2019-01-08T13:05:53.330Z,100000.63
2019-01-08T13:08:22.194Z,100006.34
2019-01-08T13:10:50.950Z,99999.84
2019-01-08T13:13:19.919Z,100008.40
2019-01-08T13:15:48.690Z,100005.03
2019-01-08T13:18:17.703Z,100011.40
2019-01-08T13:20:46.506Z,100008.03
2019-01-08T13:23:15.271Z,100020.12
2019-01-08T13:25:44.099Z,100026.05
2019-01-08T13:28:12.900Z,100023.95
2019-01-08T13:30:41.683Z,100023.58
2019-01-08T13:33:10.483Z,100024.16
2019-01-08T13:35:39.451Z,100039.91
2019-01-08T13:38:08.286Z,100052.17
2019-01-08T13:40:37.120Z,100069.91
2019-01-08T13:43:06.184Z,100067.44
2019-01-08T13:45:35.239Z,100064.27
2019-01-08T13:48:04.206Z,100063.68
2019-01-08T13:50:34.342Z,100064.21
2019-01-08T13:53:03.213Z,100073.33
2019-01-08T13:55:31.985Z,100069.63
2019-01-08T13:58:00.748Z,100073.50
2019-01-08T14:00:31.692Z,100079.84
2019-01-08T14:03:00.774Z,100087.76
2019-01-08T14:05:29.596Z,100094.63
2019-01-08T14:07:58.683Z,100101.94
2019-01-08T14:10:34.361Z,100098.31
2019-01-08T14:13:04.172Z,100106.41
2019-01-08T14:15:32.931Z,100112.50
2019-01-08T14:18:02.058Z,100115.27
2019-01-08T14:20:31.388Z,100111.15
2019-01-08T14:23:00.280Z,100113.49
2019-01-08T14:25:29.061Z,100116.95
2019-01-08T14:27:58.116Z,100109.80
2019-01-08T14:30:27.162Z,100119.55
2019-01-08T14:32:56.120Z,100117.58
2019-01-08T14:35:26.355Z,100120.67
2019-01-08T14:37:55.239Z,100124.03
2019-01-08T14:40:24.219Z,100123.20
2019-01-08T14:42:53.053Z,100125.35
2019-01-08T14:45:22.021Z,100143.30
2019-01-08T14:47:50.808Z,100148.48
2019-01-08T14:50:19.871Z,100153.04
2019-01-08T14:52:48.674Z,100169.37
2019-01-08T14:55:20.669Z,100173.27
2019-01-08T14:57:52.565Z,100180.38
2019-01-08T15:00:21.516Z,100174.71
2019-01-08T15:02:52.881Z,100184.36
2019-01-08T15:05:21.859Z,100187.59
2019-01-08T15:07:51.143Z,100194.15
2019-01-08T15:10:20.185Z,100197.38
2019-01-08T15:12:49.034Z,100196.39
2019-01-08T15:15:18.581Z,100198.20
2019-01-08T15:17:47.747Z,100202.34
2019-01-08T15:20:16.548Z,100210.44
2019-01-08T15:22:46.568Z,100205.75
2019-01-08T15:25:15.438Z,100209.45
2019-01-08T15:27:52.468Z,100209.06
2019-01-08T15:30:21.321Z,100213.53
2019-01-08T15:32:58.244Z,100213.09
2019-01-08T15:35:23.179Z,100228.41
2019-01-08T15:37:52.275Z,100223.11
2019-01-08T15:40:21.175Z,100240.91
2019-01-08T15:42:49.981Z,100242.77
2019-01-08T15:45:19.111Z,100243.09
2019-01-08T15:47:51.283Z,100243.00
2019-01-08T15:50:20.314Z,100247.00
2019-01-08T15:52:49.397Z,100256.66
2019-01-08T15:55:18.430Z,100252.81
2019-01-08T15:57:47.232Z,100256.38
2019-01-08T16:00:16.237Z,100267.87
2019-01-08T16:02:45.042Z,100266.62
2019-01-08T16:05:13.890Z,100272.12
2019-01-08T16:07:42.643Z,100264.08
2019-01-08T16:10:11.438Z,100275.20
2019-01-08T16:12:40.212Z,100272.41
2019-01-08T16:15:09.225Z,100286.45
2019-01-08T16:17:38.280Z,100278.89
2019-01-08T16:20:07.795Z,100272.34
2019-01-08T16:22:36.644Z,100283.58
2019-01-08T16:25:05.888Z,100282.89
2019-01-08T16:27:35.114Z,100285.83
2019-01-08T16:30:05.658Z,100293.09
2019-01-08T16:32:34.717Z,100299.65
2019-01-08T16:35:03.838Z,100291.62
2019-01-08T16:37:32.629Z,100302.33
2019-01-08T16:40:01.496Z,100301.42
2019-01-08T16:42:30.535Z,100302.02
2019-01-08T16:44:59.663Z,100301.72
2019-01-08T16:47:28.745Z,100310.14
2019-01-08T16:49:57.555Z,100310.43
2019-01-08T16:52:26.380Z,100313.59
2019-01-08T16:54:55.421Z,100307.65
2019-01-08T16:57:24.712Z,100309.59
2019-01-08T16:59:57.134Z,100323.84
2019-01-08T17:02:28.992Z,100315.67
2019-01-08T17:05:24.282Z,100326.38
2019-01-08T17:07:48.835Z,100331.86
2019-01-08T17:10:18.250Z,100345.56
2019-01-08T17:13:02.122Z,100343.11
2019-01-08T17:15:30.869Z,100344.58
2019-01-08T17:17:59.912Z,100343.73
2019-01-08T17:20:28.752Z,100341.11
2019-01-08T17:22:57.986Z,100317.06
2019-01-08T17:25:26.794Z,100346.81
2019-01-08T17:27:55.889Z,100356.97
2019-01-08T17:30:25.053Z,100356.20
2019-01-08T17:32:54.229Z,100354.05
2019-01-08T17:35:25.888Z,100360.59
2019-01-08T17:37:54.644Z,100358.91
2019-01-08T17:40:23.483Z,100356.83
2019-01-08T17:42:52.848Z,100360.34
2019-01-08T17:45:21.619Z,100366.67
2019-01-08T17:47:50.385Z,100375.93
2019-01-08T17:50:19.560Z,100377.06
2019-01-08T17:52:48.758Z,100370.77
2019-01-08T17:55:17.793Z,100372.67
2019-01-08T17:57:46.625Z,100372.07
2019-01-08T18:00:15.591Z,100375.58
2019-01-08T18:02:49.401Z,100372.53
2019-01-08T18:05:18.486Z,100370.77
2019-01-08T18:07:47.283Z,100368.52
2019-01-08T18:10:18.689Z,100374.21
2019-01-08T18:12:47.486Z,100370.49
2019-01-08T18:15:16.363Z,100371.34
2019-01-08T18:17:45.132Z,100368.17
2019-01-08T18:20:14.184Z,100368.17
2019-01-08T18:22:42.982Z,100370.03
2019-01-08T18:25:11.941Z,100383.66
2019-01-08T18:27:40.827Z,100378.34
2019-01-08T18:30:09.683Z,100371.26
2019-01-08T18:32:38.597Z,100380.41
2019-01-08T18:35:07.580Z,100383.02
2019-01-08T18:37:36.402Z,100391.88
2019-01-08T18:40:05.844Z,100383.30
2019-01-08T18:42:36.214Z,100380.56
2019-01-08T18:45:05.273Z,100385.03
2019-01-08T18:47:34.040Z,100377.17
2019-01-08T18:50:03.202Z,100385.80
2019-01-08T18:52:32.218Z,100385.03
2019-01-08T18:55:01.393Z,100377.69
2019-01-08T18:57:30.619Z,100386.84
2019-01-08T18:59:59.949Z,100386.23
2019-01-08T19:02:28.868Z,100398.24
2019-01-08T19:04:57.751Z,100399.60
2019-01-08T19:07:26.658Z,100392.40
2019-01-08T19:10:07.247Z,100389.63
2019-01-08T19:12:36.102Z,100404.41
2019-01-08T19:15:05.493Z,100403.76
2019-01-08T19:17:34.596Z,100399.17
2019-01-08T19:20:03.496Z,100408.34
2019-01-08T19:22:32.318Z,100414.88
2019-01-08T19:25:01.173Z,100413.41
2019-01-08T19:27:30.268Z,100420.66
2019-01-08T19:29:59.333Z,100414.88
2019-01-08T19:32:28.127Z,100427.73
2019-01-08T19:34:57.406Z,100419.63
2019-01-08T19:37:26.740Z,100418.85
2019-01-08T19:39:55.504Z,100430.63
2019-01-08T19:42:24.287Z,100434.09
2019-01-08T19:44:53.141Z,100435.48
2019-01-08T19:47:22.169Z,100433.14
2019-01-08T19:49:51.515Z,100438.38
2019-01-08T19:52:20.355Z,100436.68
2019-01-08T19:54:49.153Z,100448.07
2019-01-08T19:57:18.151Z,100436.91
2019-01-08T19:59:46.945Z,100451.31
2019-01-08T20:02:15.806Z,100440.56
2019-01-08T20:04:44.600Z,100457.73
2019-01-08T20:07:13.648Z,100465.89
2019-01-08T20:09:42.839Z,100468.50
2019-01-08T20:12:11.794Z,100460.50
2019-01-08T20:14:40.580Z,100464.64
2019-01-08T20:17:09.407Z,100475.58
2019-01-08T20:19:38.218Z,100473.83
2019-01-08T20:22:07.425Z,100477.51
2019-01-08T20:24:36.188Z,100469.59
2019-01-08T20:27:05.165Z,100477.87
2019-01-08T20:29:34.234Z,100486.00
2019-01-08T20:32:03.527Z,100485.27
2019-01-08T20:34:32.298Z,100493.78
2019-01-08T20:37:01.086Z,100486.58
2019-01-08T20:39:29.865Z,100492.20
2019-01-08T20:41:58.837Z,100494.10
2019-01-08T20:44:29.025Z,100496.94
2019-01-08T20:47:00.087Z,100488.88
2019-01-08T20:49:29.301Z,100507.18
2019-01-08T20:51:58.209Z,100501.36
2019-01-08T20:54:27.282Z,100499.08
2019-01-08T20:56:56.570Z,100499.94
2019-01-08T20:59:32.505Z,100507.97
2019-01-08T21:02:03.138Z,100500.83
2019-01-08T21:04:35.649Z,100525.88
2019-01-08T21:07:03.170Z,100520.58
2019-01-08T21:09:32.313Z,100526.59
2019-01-08T21:12:01.496Z,100539.27
2019-01-08T21:14:30.359Z,100530.97
2019-01-08T21:16:59.494Z,100535.34
2019-01-08T21:19:28.377Z,100535.45
2019-01-08T21:21:57.198Z,100543.83
2019-01-08T21:24:28.940Z,100540.25
2019-01-08T21:26:56.520Z,100542.87
2019-01-08T21:29:28.894Z,100537.57
2019-01-08T21:31:57.701Z,100537.95
2019-01-08T21:34:26.968Z,100538.67
2019-01-08T21:36:55.775Z,100537.30
2019-01-08T21:39:25.083Z,100543.20
2019-01-08T21:41:53.854Z,100534.67
2019-01-08T21:44:22.689Z,100539.34
2019-01-08T21:47:03.617Z,100552.98
2019-01-08T21:49:32.424Z,100544.49
2019-01-08T21:52:01.223Z,100546.91
2019-01-08T21:54:30.071Z,100549.83
2019-01-08T21:56:59.025Z,100539.51
2019-01-08T21:59:39.601Z,100543.36
2019-01-08T22:02:17.556Z,100510.20
2019-01-08T22:04:53.311Z,100547.17
2019-01-08T22:07:27.041Z,100550.03
2019-01-08T22:10:05.429Z,100536.11
2019-01-08T22:12:52.410Z,100557.67
2019-01-08T22:15:27.545Z,100530.80
2019-01-08T22:17:56.806Z,100547.98
2019-01-08T22:20:25.587Z,100556.34
2019-01-08T22:22:54.431Z,100560.35
2019-01-08T22:25:23.253Z,100558.96
2019-01-08T22:27:52.793Z,100556.33
2019-01-08T22:30:21.676Z,100559.95
2019-01-08T22:32:50.464Z,100559.88
2019-01-08T22:35:19.322Z,100561.32
2019-01-08T22:37:48.091Z,100569.55
2019-01-08T22:40:16.866Z,100565.48
2019-01-08T22:42:45.652Z,100569.27
2019-01-08T22:45:16.309Z,100580.23
2019-01-08T22:47:45.427Z,100574.16
2019-01-08T22:50:14.289Z,100577.39
2019-01-08T22:52:43.152Z,100579.09
2019-01-08T22:55:12.129Z,100577.92
2019-01-08T22:57:40.933Z,100578.70
2019-01-08T23:00:33.054Z,100566.16
2019-01-08T23:03:02.224Z,100583.64
2019-01-08T23:05:31.271Z,100584.30
2019-01-08T23:08:00.256Z,100576.95
2019-01-08T23:10:30.680Z,100575.54
2019-01-08T23:12:59.950Z,100572.80
2019-01-08T23:15:28.898Z,100581.94
2019-01-08T23:17:57.825Z,100583.53
2019-01-08T23:20:26.682Z,100588.63
2019-01-08T23:22:55.555Z,100589.80
2019-01-08T23:25:24.602Z,100598.17
2019-01-08T23:27:53.780Z,100595.00
2019-01-08T23:30:22.913Z,100598.46
2019-01-08T23:32:51.889Z,100598.95
2019-01-08T23:35:21.208Z,100598.17
2019-01-08T23:37:50.100Z,100608.85
2019-01-08T23:40:19.348Z,100603.09
2019-01-08T23:42:48.185Z,100614.30
2019-01-08T23:45:17.154Z,100611.40
2019-01-08T23:47:46.024Z,100620.84
2019-01-08T23:50:14.845Z,100628.16
2019-01-08T23:52:51.796Z,100622.92
2019-01-08T23:55:22.995Z,100627.23
2019-01-08T23:57:59.228Z,100632.99
